Time;durP1;ratioP1;P1;durP2;ratioP2;P2;SDS_P1;SDS_P2;PMS_P1;PMS_P2;Temp;Humidity;BMP_temperature;BMP_pressure;BME280_temperature;BME280_humidity;BME280_pressure;Samples;Min_cycle;Max_cycle;Signal;HPM_P1;HPM_P2
2022/01/25 00:09:19;;;;;;;;;;;;;;;25.80;24.59;102453.72;5010286;28;1505;-75
2022/01/25 00:25:45;;;;;;;;;;;;;;;24.92;24.96;102439.03;5008707;28;1395;-72
2022/01/25 00:28:22;;;;;;;;;;;;;;;25.19;24.95;102432.16;5010373;28;983;-74
2022/01/25 00:31:01;;;;;;;;;;;;;;;25.56;24.84;102438.94;5010441;28;1019;-73
2022/01/25 00:33:27;;;;;;;;;;;;;;;25.74;24.45;102435.00;5009107;28;1337;-73
2022/01/25 00:35:53;;;;;;;;;;;;;;;25.92;24.64;102417.97;5008974;28;998;-73
2022/01/25 00:38:20;;;;;;;;;;;;;;;25.68;24.38;102405.13;5010364;28;994;-73
2022/01/25 00:40:46;;;;;;;;;;;;;;;25.79;24.25;102401.94;5010347;28;994;-72
2022/01/25 00:43:14;;;;;;;;;;;;;;;25.89;23.98;102407.25;5010068;28;1914;-75
2022/01/25 00:45:40;;;;;;;;;;;;;;;25.47;24.76;102398.34;5010324;28;907;-74
2022/01/25 00:48:09;;;;;;;;;;;;;;;25.38;25.23;102400.28;5010194;28;1007;-74
2022/01/25 00:50:40;;;;;;;;;;;;;;;25.27;24.95;102391.47;5013582;28;992;-75
2022/01/25 00:55:50;;;;;;;;;;;;;;;23.99;26.32;102394.06;5013585;28;761;-74
2022/01/25 00:58:17;;;;;;;;;;;;;;;23.19;27.31;102406.53;5013991;28;995;-74
2022/01/25 01:00:44;;;;;;;;;;;;;;;22.17;28.50;102403.50;5013847;28;991;-72
2022/01/25 01:03:10;;;;;;;;;;;;;;;23.06;27.62;102408.88;5013676;28;1926;-73
2022/01/25 01:05:38;;;;;;;;;;;;;;;23.15;27.20;102407.91;5012486;28;1161;-73
2022/01/25 01:08:05;;;;;;;;;;;;;;;23.62;26.75;102402.84;5014120;28;797;-75
2022/01/25 01:10:31;;;;;;;;;;;;;;;23.98;26.37;102395.09;5013727;28;899;-74
2022/01/25 01:15:49;;;;;;;;;;;;;;;22.89;27.37;102408.81;4993491;28;1262;-75
2022/01/25 01:29:25;;;;;;;;;;;;;;;22.30;28.04;102402.22;5013551;28;812;-75
2022/01/25 01:32:04;;;;;;;;;;;;;;;23.84;26.77;102393.88;5013723;28;1003;-73
2022/01/25 01:35:19;;;;;;;;;;;;;;;22.44;28.03;102398.03;5013228;28;1357;-73
2022/01/25 01:38:06;;;;;;;;;;;;;;;21.55;29.39;102396.06;5013182;28;1203;-74
2022/01/25 01:43:28;;;;;;;;;;;;;;;23.31;27.18;102389.63;5013024;28;1971;-72
2022/01/25 01:46:01;;;;;;;;;;;;;;;23.99;26.71;102387.66;5012965;28;896;-73
2022/01/25 01:48:31;;;;;;;;;;;;;;;23.52;27.35;102395.56;5013150;28;792;-73
2022/01/25 01:51:04;;;;;;;;;;;;;;;24.04;26.63;102390.78;5012996;28;1037;-75
2022/01/25 01:53:31;;;;;;;;;;;;;;;22.95;26.91;102390.69;5012820;28;1331;-73
2022/01/25 01:55:57;;;;;;;;;;;;;;;23.21;27.61;102389.75;5011658;28;915;-75
2022/01/25 01:58:23;;;;;;;;;;;;;;;22.52;28.02;102384.25;5012401;28;1046;-73
2022/01/25 02:00:50;;;;;;;;;;;;;;;22.92;27.83;102382.72;5011129;28;812;-75
2022/01/25 02:03:16;;;;;;;;;;;;;;;22.33;28.75;102377.88;5012540;28;1914;-73
2022/01/25 02:05:44;;;;;;;;;;;;;;;22.68;27.98;102375.16;5010644;28;1674;-73
2022/01/25 02:08:11;;;;;;;;;;;;;;;22.08;29.09;102379.59;5012315;28;1058;-74
2022/01/25 02:10:37;;;;;;;;;;;;;;;23.16;27.46;102381.13;5012425;28;840;-75
2022/01/25 02:13:04;;;;;;;;;;;;;;;21.50;28.78;102368.00;5012398;28;1075;-75
2022/01/25 02:15:31;;;;;;;;;;;;;;;22.31;28.12;102366.09;5011712;28;1349;-73
2022/01/25 02:22:25;;;;;;;;;;;;;;;21.84;28.49;102364.53;5010965;28;944;-73
2022/01/25 02:23:32;;;;;;;;;;;;;;;23.17;26.64;102364.31;5010584;28;1914;-71
2022/01/25 02:25:59;;;;;;;;;;;;;;;23.29;26.80;102370.41;5011828;28;1082;-73
2022/01/25 02:28:27;;;;;;;;;;;;;;;24.01;25.87;102361.50;5011201;28;1180;-74
2022/01/25 02:30:53;;;;;;;;;;;;;;;23.72;25.95;102371.16;5013048;28;915;-74
2022/01/25 02:33:20;;;;;;;;;;;;;;;23.01;27.00;102367.88;5010741;28;1326;-72
2022/01/25 02:35:47;;;;;;;;;;;;;;;23.91;26.12;102358.03;5010321;28;1175;-73
2022/01/25 02:38:14;;;;;;;;;;;;;;;23.52;26.02;102364.22;5010793;28;1168;-72
2022/01/25 02:40:40;;;;;;;;;;;;;;;23.80;25.90;102359.22;5011300;28;935;-74
2022/01/25 02:43:07;;;;;;;;;;;;;;;24.37;25.47;102357.44;5012219;28;1914;-74
2022/01/25 02:45:35;;;;;;;;;;;;;;;23.37;25.83;102361.22;5011480;28;1017;-71
2022/01/25 02:50:48;;;;;;;;;;;;;;;23.47;26.08;102348.09;5012038;28;847;-73
2022/01/25 02:53:15;;;;;;;;;;;;;;;23.58;25.88;102346.88;5011667;28;1294;-74
2022/01/25 02:55:41;;;;;;;;;;;;;;;23.19;26.19;102353.94;5010113;28;964;-73
2022/01/25 02:58:08;;;;;;;;;;;;;;;23.15;26.50;102355.31;5011927;28;820;-73
2022/01/25 03:00:34;;;;;;;;;;;;;;;23.48;26.39;102352.59;5012091;28;809;-74
2022/01/25 03:03:00;;;;;;;;;;;;;;;22.82;26.88;102348.75;5011726;28;2023;-72
2022/01/25 03:05:28;;;;;;;;;;;;;;;23.78;25.82;102335.47;5011232;28;1321;-72
2022/01/25 03:07:57;;;;;;;;;;;;;;;23.69;25.65;102326.28;5010289;28;778;-73
2022/01/25 03:10:23;;;;;;;;;;;;;;;23.49;25.84;102323.88;5011714;28;931;-74
2022/01/25 03:12:54;;;;;;;;;;;;;;;23.48;25.99;102313.81;5011212;28;971;-73
2022/01/25 03:15:30;;;;;;;;;;;;;;;23.33;26.10;102324.72;5015018;28;1475;-72
2022/01/25 03:17:59;;;;;;;;;;;;;;;23.03;26.61;102326.16;5013548;28;1038;-73
2022/01/25 03:20:46;;;;;;;;;;;;;;;23.88;25.56;102314.84;5011118;28;978;-71
2022/01/25 03:23:18;;;;;;;;;;;;;;;23.49;25.85;102314.66;5009771;28;1973;-73
2022/01/25 03:25:47;;;;;;;;;;;;;;;22.98;26.38;102328.56;5011033;28;927;-73
2022/01/25 03:28:13;;;;;;;;;;;;;;;23.37;26.01;102336.28;5006765;28;2233;-74
2022/01/25 03:30:40;;;;;;;;;;;;;;;23.20;25.88;102333.50;5011144;28;1113;-72
2022/01/25 03:33:06;;;;;;;;;;;;;;;23.31;26.37;102328.69;5009894;28;1186;-73
2022/01/25 03:35:32;;;;;;;;;;;;;;;23.27;26.57;102332.84;5010830;28;892;-72
2022/01/25 03:37:59;;;;;;;;;;;;;;;22.72;26.70;102327.59;5010914;28;955;-72
2022/01/25 03:40:26;;;;;;;;;;;;;;;23.09;26.29;102325.50;5010969;28;887;-74
2022/01/25 03:42:54;;;;;;;;;;;;;;;22.60;26.78;102328.09;5010939;28;1989;-72
2022/01/25 03:45:26;;;;;;;;;;;;;;;23.15;26.44;102324.84;5010640;28;1362;-73
2022/01/25 03:48:00;;;;;;;;;;;;;;;23.44;25.77;102311.53;5011096;28;627;-72
2022/01/25 03:50:26;;;;;;;;;;;;;;;23.16;26.07;102314.66;5009609;28;947;-72
2022/01/25 03:52:53;;;;;;;;;;;;;;;22.56;27.09;102320.09;5010754;28;1110;-72
2022/01/25 03:55:20;;;;;;;;;;;;;;;23.35;25.97;102307.91;5025382;28;1324;-73
2022/01/25 03:57:47;;;;;;;;;;;;;;;23.37;25.77;102311.38;5011304;28;726;-73
2022/01/25 04:00:15;;;;;;;;;;;;;;;23.21;26.06;102312.19;5010878;28;792;-73
2022/01/25 04:02:49;;;;;;;;;;;;;;;23.66;25.93;102321.09;5010838;28;1981;-73
2022/01/25 04:05:21;;;;;;;;;;;;;;;23.55;25.80;102312.06;5010563;28;1483;-71
2022/01/25 04:07:50;;;;;;;;;;;;;;;23.73;25.77;102305.50;5009551;28;995;-73
2022/01/25 04:10:17;;;;;;;;;;;;;;;23.72;25.47;102299.09;5010472;28;1006;-73
2022/01/25 04:12:44;;;;;;;;;;;;;;;23.56;26.09;102304.66;5010872;28;966;-73
2022/01/25 04:15:11;;;;;;;;;;;;;;;23.05;26.21;102301.97;5010368;28;1381;-73
2022/01/25 04:17:39;;;;;;;;;;;;;;;23.22;25.97;102300.97;5010585;28;1078;-71
2022/01/25 04:20:15;;;;;;;;;;;;;;;23.48;26.03;102293.56;5010397;28;923;-73
2022/01/25 04:25:25;;;;;;;;;;;;;;;23.08;26.16;102298.84;5012366;28;1347;-72
2022/01/25 04:27:52;;;;;;;;;;;;;;;23.04;26.69;102303.00;5014374;28;908;-73
2022/01/25 04:30:19;;;;;;;;;;;;;;;22.61;27.78;102305.78;5014613;28;979;-72
2022/01/25 04:32:48;;;;;;;;;;;;;;;22.15;27.62;102300.47;5014054;28;1046;-74
2022/01/25 04:35:28;;;;;;;;;;;;;;;22.88;26.73;102301.88;5013913;28;1355;-73
2022/01/25 04:49:00;;;;;;;;;;;;;;;23.33;26.17;102283.16;5014478;28;998;-73
2022/01/25 04:54:18;;;;;;;;;;;;;;;23.55;25.93;102291.81;5013410;28;1392;-70
2022/01/25 04:56:51;;;;;;;;;;;;;;;23.67;26.17;102307.06;5013957;28;998;-73
2022/01/25 04:59:24;;;;;;;;;;;;;;;22.70;26.90;102303.91;5012614;28;1042;-73
2022/01/25 05:01:57;;;;;;;;;;;;;;;22.70;27.25;102304.78;5012509;28;1136;-72
2022/01/25 05:04:28;;;;;;;;;;;;;;;22.82;26.90;102312.75;5013513;28;1985;-71
2022/01/25 05:07:02;;;;;;;;;;;;;;;22.74;26.81;102316.38;5013538;28;998;-74
2022/01/25 05:09:28;;;;;;;;;;;;;;;23.00;26.62;102315.44;5013714;28;918;-75
2022/01/25 05:11:57;;;;;;;;;;;;;;;23.79;25.69;102321.44;5012133;28;1374;-72
2022/01/25 05:14:30;;;;;;;;;;;;;;;23.94;25.59;102324.41;5025246;22;4063;-76
2022/01/25 05:17:00;;;;;;;;;;;;;;;24.19;25.07;102319.69;5012163;28;1014;-74
2022/01/25 05:22:18;;;;;;;;;;;;;;;23.64;26.39;102314.88;4990468;28;1166;-75
2022/01/25 05:24:45;;;;;;;;;;;;;;;23.95;25.60;102314.19;5020378;28;1737;-76
2022/01/25 05:27:13;;;;;;;;;;;;;;;23.85;25.88;102315.22;5031538;28;1128;-76
2022/01/25 05:29:39;;;;;;;;;;;;;;;23.42;26.17;102308.94;5033023;28;994;-74
2022/01/25 05:32:08;;;;;;;;;;;;;;;23.33;26.25;102307.22;5031665;28;867;-76
2022/01/25 05:34:34;;;;;;;;;;;;;;;23.02;26.61;102317.00;5032013;28;1331;-78
2022/01/25 05:37:03;;;;;;;;;;;;;;;23.21;26.34;102307.56;5031570;28;738;-77
2022/01/25 05:39:32;;;;;;;;;;;;;;;23.41;26.25;102296.16;5032807;28;962;-75
2022/01/25 05:42:12;;;;;;;;;;;;;;;22.93;27.10;102303.28;5031430;28;888;-76
2022/01/25 05:44:42;;;;;;;;;;;;;;;23.61;26.38;102302.22;5030914;28;1976;-74
2022/01/25 05:47:13;;;;;;;;;;;;;;;23.14;26.61;102305.63;5032790;28;958;-76
2022/01/25 05:49:43;;;;;;;;;;;;;;;22.56;26.92;102300.72;5031497;28;1054;-76
2022/01/25 05:52:10;;;;;;;;;;;;;;;23.02;26.79;102302.28;5032553;28;942;-77
2022/01/25 05:54:37;;;;;;;;;;;;;;;23.89;26.04;102296.31;5032454;28;1322;-76
2022/01/25 05:57:03;;;;;;;;;;;;;;;23.70;26.27;102297.53;5032251;28;1002;-73
2022/01/25 05:59:30;;;;;;;;;;;;;;;23.00;26.53;102301.59;5022722;28;1492;-74
2022/01/25 06:01:56;;;;;;;;;;;;;;;23.28;26.58;102306.88;5010548;28;841;-75
2022/01/25 06:04:24;;;;;;;;;;;;;;;23.54;26.13;102296.50;5012205;28;1911;-75
2022/01/25 06:06:51;;;;;;;;;;;;;;;23.88;25.94;102298.22;5012556;28;991;-77
2022/01/25 06:09:17;;;;;;;;;;;;;;;23.78;25.91;102304.97;5016107;28;1446;-77
2022/01/25 06:11:44;;;;;;;;;;;;;;;23.20;26.54;102314.13;5012463;28;1449;-76
2022/01/25 06:14:10;;;;;;;;;;;;;;;23.50;26.38;102310.88;5011512;28;1323;-74
2022/01/25 06:16:36;;;;;;;;;;;;;;;23.08;26.39;102305.22;5010787;28;1003;-74
2022/01/25 06:19:03;;;;;;;;;;;;;;;23.37;26.67;102297.50;5011715;28;967;-74
2022/01/25 06:21:30;;;;;;;;;;;;;;;23.08;26.67;102307.16;5025116;28;1576;-75
2022/01/25 06:23:57;;;;;;;;;;;;;;;22.95;26.76;102309.53;5031070;28;1978;-77
2022/01/25 06:26:23;;;;;;;;;;;;;;;23.68;26.27;102307.94;5031398;28;1022;-75
2022/01/25 06:28:49;;;;;;;;;;;;;;;23.31;26.33;102317.59;5030374;28;1176;-74
2022/01/25 06:31:17;;;;;;;;;;;;;;;22.83;26.81;102306.19;5026680;28;1552;-76
2022/01/25 06:33:43;;;;;;;;;;;;;;;23.51;26.53;102307.06;5029662;28;1053;-78
2022/01/25 06:36:10;;;;;;;;;;;;;;;23.01;27.06;102298.66;5031454;28;1381;-74
2022/01/25 06:38:38;;;;;;;;;;;;;;;22.32;27.66;102297.81;5018512;28;1553;-74
2022/01/25 06:41:05;;;;;;;;;;;;;;;22.17;27.97;102287.38;5011993;28;911;-76
2022/01/25 06:43:31;;;;;;;;;;;;;;;22.39;27.60;102299.81;5012114;28;1985;-74
2022/01/25 06:46:03;;;;;;;;;;;;;;;22.06;28.19;102298.69;5009878;28;1362;-76
2022/01/25 06:48:29;;;;;;;;;;;;;;;21.95;28.21;102301.75;5016194;28;1556;-75
2022/01/25 06:50:56;;;;;;;;;;;;;;;22.89;27.24;102309.16;5018606;28;978;-79
2022/01/25 06:53:22;;;;;;;;;;;;;;;22.94;27.41;102305.03;5027576;28;1196;-81
2022/01/25 06:55:49;;;;;;;;;;;;;;;23.37;26.61;102303.94;5031919;28;1427;-78
2022/01/25 06:58:16;;;;;;;;;;;;;;;23.01;27.08;102304.19;5019647;28;1716;-78
2022/01/25 07:00:42;;;;;;;;;;;;;;;22.55;27.23;102306.44;5024457;28;1263;-80
2022/01/25 07:03:09;;;;;;;;;;;;;;;22.79;27.33;102308.44;5050092;28;1918;-78
2022/01/25 07:05:35;;;;;;;;;;;;;;;22.74;27.35;102308.06;5060530;28;1431;-80
2022/01/25 07:08:02;;;;;;;;;;;;;;;22.62;27.97;102317.72;5020952;28;2176;-78
2022/01/25 07:10:28;;;;;;;;;;;;;;;22.47;27.87;102315.56;5030411;28;1011;-79
2022/01/25 07:12:56;;;;;;;;;;;;;;;22.44;28.06;102313.13;5012361;28;1245;-80
2022/01/25 07:15:22;;;;;;;;;;;;;;;23.08;27.21;102312.69;5019403;28;1489;-77
2022/01/25 07:17:48;;;;;;;;;;;;;;;23.32;26.72;102309.13;5031364;28;966;-77
2022/01/25 07:20:14;;;;;;;;;;;;;;;22.32;28.10;102312.50;5036327;28;962;-79
2022/01/25 07:22:41;;;;;;;;;;;;;;;23.04;27.41;102311.28;5032569;28;1337;-77
2022/01/25 07:25:08;;;;;;;;;;;;;;;22.36;28.17;102319.47;5020151;28;1979;-78
2022/01/25 07:27:35;;;;;;;;;;;;;;;22.19;28.17;102312.97;5034439;28;1533;-79
2022/01/25 07:30:03;;;;;;;;;;;;;;;22.21;28.31;102316.44;5037963;28;1130;-76
2022/01/25 07:32:30;;;;;;;;;;;;;;;22.56;27.80;102316.47;5030088;28;1517;-76
2022/01/25 07:34:56;;;;;;;;;;;;;;;22.95;27.52;102317.84;5010849;28;1333;-77
2022/01/25 07:37:22;;;;;;;;;;;;;;;23.15;27.33;102316.53;5011096;28;808;-76
2022/01/25 07:39:49;;;;;;;;;;;;;;;21.56;29.19;102311.28;5016970;28;1478;-77
2022/01/25 07:42:16;;;;;;;;;;;;;;;22.96;27.78;102319.59;5024287;28;1564;-77
2022/01/25 07:44:48;;;;;;;;;;;;;;;22.97;27.93;102319.41;5020328;28;1922;-76
2022/01/25 07:47:16;;;;;;;;;;;;;;;23.63;26.93;102318.69;5024599;28;1525;-76
2022/01/25 07:49:42;;;;;;;;;;;;;;;22.98;27.49;102320.25;5009636;28;1136;-74
2022/01/25 07:52:08;;;;;;;;;;;;;;;23.10;27.18;102310.59;5012088;28;1561;-76
2022/01/25 07:54:35;;;;;;;;;;;;;;;23.20;27.44;102304.97;5017047;28;1318;-75
2022/01/25 07:57:01;;;;;;;;;;;;;;;22.84;27.69;102302.41;5029004;28;1003;-76
2022/01/25 07:59:27;;;;;;;;;;;;;;;23.07;27.38;102309.03;5033018;28;1025;-76
2022/01/25 08:01:54;;;;;;;;;;;;;;;22.98;27.65;102306.41;5026325;28;1740;-76
2022/01/25 08:04:21;;;;;;;;;;;;;;;23.92;26.43;102297.88;5029676;28;1914;-75
2022/01/25 08:06:48;;;;;;;;;;;;;;;23.60;26.81;102299.59;5013632;28;1557;-76
2022/01/25 08:09:14;;;;;;;;;;;;;;;22.88;27.75;102304.66;5031377;28;1387;-74
2022/01/25 08:11:42;;;;;;;;;;;;;;;22.89;27.89;102309.16;5034485;28;902;-75
2022/01/25 08:14:16;;;;;;;;;;;;;;;23.55;26.95;102308.44;5033964;28;1363;-75
2022/01/25 08:16:44;;;;;;;;;;;;;;;22.40;28.23;102307.06;5032646;28;1506;-73
2022/01/25 08:19:10;;;;;;;;;;;;;;;21.72;29.28;102300.34;5031357;28;1364;-73
2022/01/25 08:21:40;;;;;;;;;;;;;;;22.67;28.19;102299.56;5032513;28;1341;-75
2022/01/25 08:24:06;;;;;;;;;;;;;;;23.03;27.85;102304.88;5033471;28;1985;-72
2022/01/25 08:26:33;;;;;;;;;;;;;;;22.19;29.00;102296.38;5024615;28;1556;-76
2022/01/25 08:29:00;;;;;;;;;;;;;;;21.83;29.27;102295.59;5026496;28;1410;-73
2022/01/25 08:31:26;;;;;;;;;;;;;;;21.84;29.03;102297.34;5032991;28;910;-74
2022/01/25 08:33:53;;;;;;;;;;;;;;;22.42;28.77;102309.66;5031192;28;1490;-73
2022/01/25 08:36:19;;;;;;;;;;;;;;;21.53;30.19;102314.34;5033133;28;1019;-73
2022/01/25 08:38:47;;;;;;;;;;;;;;;22.64;28.70;102310.97;5050110;28;1010;-76
2022/01/25 08:41:14;;;;;;;;;;;;;;;21.45;29.72;102304.06;5025727;28;1513;-75
2022/01/25 08:43:40;;;;;;;;;;;;;;;22.14;29.49;102309.81;5031264;28;1914;-77
2022/01/25 08:46:06;;;;;;;;;;;;;;;23.15;28.00;102316.53;5029947;28;1548;-78
2022/01/25 08:48:33;;;;;;;;;;;;;;;22.19;29.13;102314.84;5033833;28;793;-75
2022/01/25 08:51:01;;;;;;;;;;;;;;;22.39;28.91;102313.63;5033569;28;969;-76
2022/01/25 08:53:27;;;;;;;;;;;;;;;22.71;28.44;102322.25;5017908;28;1572;-76
2022/01/25 08:55:54;;;;;;;;;;;;;;;23.04;28.19;102314.06;5018787;28;1275;-76
2022/01/25 08:58:21;;;;;;;;;;;;;;;22.79;28.60;102313.13;5031680;28;1374;-75
2022/01/25 09:00:47;;;;;;;;;;;;;;;22.88;28.26;102310.19;5029915;28;1537;-76
2022/01/25 09:03:13;;;;;;;;;;;;;;;23.46;28.04;102306.72;5034777;28;1323;-78
2022/01/25 09:05:40;;;;;;;;;;;;;;;23.84;27.33;102312.63;5034034;28;2052;-78
2022/01/25 09:08:06;;;;;;;;;;;;;;;23.45;27.92;102314.16;5022688;28;1508;-76
2022/01/25 09:10:33;;;;;;;;;;;;;;;23.06;28.60;102323.94;5024511;28;1311;-75
2022/01/25 09:13:01;;;;;;;;;;;;;;;22.51;29.22;102328.03;5029779;28;1434;-74
2022/01/25 09:15:27;;;;;;;;;;;;;;;22.15;29.59;102316.22;5013084;28;1332;-76
2022/01/25 09:17:54;;;;;;;;;;;;;;;22.93;28.91;102314.34;5027169;28;1179;-75
2022/01/25 09:20:20;;;;;;;;;;;;;;;23.71;27.97;102302.91;5025208;28;1544;-75
2022/01/25 09:22:46;;;;;;;;;;;;;;;22.78;28.81;102312.22;5031301;28;1390;-75
2022/01/25 09:25:13;;;;;;;;;;;;;;;23.72;27.83;102309.31;5032148;28;1914;-74
2022/01/25 09:27:39;;;;;;;;;;;;;;;23.60;27.94;102307.91;5032604;28;1100;-73
2022/01/25 09:30:08;;;;;;;;;;;;;;;23.42;28.29;102308.94;5026226;28;1741;-75
2022/01/25 09:32:34;;;;;;;;;;;;;;;23.44;28.12;102304.13;5031575;28;991;-77
2022/01/25 09:35:00;;;;;;;;;;;;;;;22.89;28.90;102300.00;5031533;28;1344;-77
2022/01/25 09:37:27;;;;;;;;;;;;;;;23.56;28.45;102311.03;5031610;28;1255;-76
2022/01/25 09:39:53;;;;;;;;;;;;;;;23.53;28.40;102308.63;5027383;28;1462;-75
2022/01/25 09:42:20;;;;;;;;;;;;;;;22.93;28.56;102303.28;5031701;28;1140;-76
2022/01/25 09:44:47;;;;;;;;;;;;;;;22.94;28.79;102305.88;5032484;28;1927;-77
2022/01/25 09:47:14;;;;;;;;;;;;;;;22.64;28.87;102302.66;5032470;28;959;-74
2022/01/25 09:49:41;;;;;;;;;;;;;;;23.17;28.84;102300.63;5026688;28;1299;-76
2022/01/25 09:52:08;;;;;;;;;;;;;;;22.91;29.19;102295.16;5028948;28;1521;-74
2022/01/25 09:54:36;;;;;;;;;;;;;;;23.40;28.39;102291.66;5032301;28;1324;-74
2022/01/25 09:57:03;;;;;;;;;;;;;;;22.96;29.54;102292.75;5042360;28;1142;-75
2022/01/25 09:59:30;;;;;;;;;;;;;;;23.08;29.13;102294.16;5008733;28;1531;-75
2022/01/25 10:01:57;;;;;;;;;;;;;;;24.02;27.91;102288.31;5030427;28;1462;-73
2022/01/25 10:04:30;;;;;;;;;;;;;;;23.51;28.83;102291.28;5031737;28;1907;-75
2022/01/25 10:06:56;;;;;;;;;;;;;;;22.76;28.92;102278.34;5031755;28;1583;-74
2022/01/25 10:09:24;;;;;;;;;;;;;;;23.43;28.76;102285.75;5023493;28;1445;-75
2022/01/25 10:11:50;;;;;;;;;;;;;;;22.79;29.17;102283.53;5024823;28;1057;-74
2022/01/25 10:14:17;;;;;;;;;;;;;;;22.97;29.22;102279.75;5030608;28;1398;-74
2022/01/25 10:16:45;;;;;;;;;;;;;;;23.38;28.87;102279.84;5031882;28;1537;-73
2022/01/25 10:19:12;;;;;;;;;;;;;;;23.42;28.50;102275.69;5013846;28;1186;-72
2022/01/25 10:21:41;;;;;;;;;;;;;;;22.89;29.19;102278.72;5030780;28;1564;-74
2022/01/25 10:24:08;;;;;;;;;;;;;;;22.27;29.77;102278.09;5014932;28;1918;-72
2022/01/25 10:26:38;;;;;;;;;;;;;;;22.08;29.83;102269.00;5012881;28;1251;-76
2022/01/25 10:29:05;;;;;;;;;;;;;;;23.74;28.29;102261.00;5018670;28;1015;-74
2022/01/25 10:31:36;;;;;;;;;;;;;;;23.54;28.59;102266.03;5031562;28;1589;-75
2022/01/25 10:34:03;;;;;;;;;;;;;;;23.72;28.47;102270.50;5031031;28;1376;-79
2022/01/25 10:36:29;;;;;;;;;;;;;;;22.81;29.35;102272.28;5031664;28;1814;-79
2022/01/25 10:38:57;;;;;;;;;;;;;;;24.11;27.97;102271.69;5028661;28;1434;-78
2022/01/25 10:41:24;;;;;;;;;;;;;;;23.01;28.94;102283.91;5028476;28;1271;-74
2022/01/25 10:43:52;;;;;;;;;;;;;;;23.49;28.81;102275.88;5030012;28;1521;-72
2022/01/25 10:46:22;;;;;;;;;;;;;;;22.94;29.45;102274.56;5014415;28;1967;-73
2022/01/25 10:48:51;;;;;;;;;;;;;;;23.62;28.33;102265.13;5016217;28;1600;-71
2022/01/25 10:51:19;;;;;;;;;;;;;;;24.10;28.25;102267.19;5011506;28;889;-73
2022/01/25 10:53:46;;;;;;;;;;;;;;;23.85;28.37;102270.84;5023831;28;992;-74
2022/01/25 10:56:13;;;;;;;;;;;;;;;24.31;27.66;102269.38;5015080;28;1486;-72
2022/01/25 10:58:42;;;;;;;;;;;;;;;23.56;28.44;102282.47;5010244;28;947;-72
2022/01/25 11:01:10;;;;;;;;;;;;;;;23.18;29.59;102285.75;5009965;28;986;-74
2022/01/25 11:03:38;;;;;;;;;;;;;;;23.88;28.24;102270.47;5010218;28;977;-72
2022/01/25 11:06:12;;;;;;;;;;;;;;;23.06;28.89;102282.41;5012789;28;1914;-74
2022/01/25 11:08:39;;;;;;;;;;;;;;;24.22;28.11;102277.72;5020962;28;1695;-74
2022/01/25 11:11:09;;;;;;;;;;;;;;;24.08;27.98;102270.13;5010416;28;1561;-72
2022/01/25 11:13:39;;;;;;;;;;;;;;;23.82;27.94;102273.94;5022156;28;1423;-73
2022/01/25 11:16:07;;;;;;;;;;;;;;;23.84;28.25;102265.47;5027412;28;1738;-75
2022/01/25 11:18:33;;;;;;;;;;;;;;;23.54;28.73;102268.81;5029952;28;1102;-75
2022/01/25 11:21:01;;;;;;;;;;;;;;;23.90;28.25;102262.03;5029507;28;894;-73
2022/01/25 11:23:28;;;;;;;;;;;;;;;23.97;28.11;102260.28;5030412;28;1151;-73
2022/01/25 11:25:54;;;;;;;;;;;;;;;23.84;28.24;102259.94;5030361;28;1918;-75
2022/01/25 11:28:21;;;;;;;;;;;;;;;24.08;28.12;102259.03;5027435;28;1561;-72
2022/01/25 11:30:51;;;;;;;;;;;;;;;23.26;29.01;102251.63;5029836;28;1584;-75
2022/01/25 11:33:19;;;;;;;;;;;;;;;23.70;28.46;102251.28;5024463;28;1284;-73
2022/01/25 11:35:46;;;;;;;;;;;;;;;23.44;28.45;102251.47;5026702;28;1373;-73
2022/01/25 11:38:13;;;;;;;;;;;;;;;23.77;28.41;102251.47;5029156;28;928;-73
2022/01/25 11:40:40;;;;;;;;;;;;;;;23.71;28.46;102247.47;5024242;28;1552;-71
2022/01/25 11:43:08;;;;;;;;;;;;;;;23.69;28.49;102252.31;5027389;28;1516;-71
2022/01/25 11:45:35;;;;;;;;;;;;;;;23.23;28.94;102247.28;5011934;28;1910;-75
2022/01/25 11:48:03;;;;;;;;;;;;;;;23.09;28.92;102247.97;5022162;28;1676;-74
2022/01/25 11:50:31;;;;;;;;;;;;;;;24.60;27.65;102245.66;5028664;28;1521;-74
2022/01/25 11:53:05;;;;;;;;;;;;;;;23.91;28.27;102258.22;5028283;28;1243;-72
2022/01/25 11:55:34;;;;;;;;;;;;;;;23.19;29.15;102248.69;5013126;28;1345;-75
2022/01/25 11:58:01;;;;;;;;;;;;;;;23.43;28.95;102246.97;5035318;28;1323;-74
2022/01/25 12:00:38;;;;;;;;;;;;;;;22.90;29.75;102244.47;5028511;28;1455;-74
2022/01/25 12:03:19;;;;;;;;;;;;;;;22.31;30.42;102247.16;5034176;28;1095;-73
2022/01/25 12:05:53;;;;;;;;;;;;;;;23.04;29.24;102236.53;5035802;28;1922;-75
2022/01/25 12:08:27;;;;;;;;;;;;;;;23.42;28.63;102244.38;5026902;28;924;-74
2022/01/25 12:10:58;;;;;;;;;;;;;;;23.87;28.68;102242.94;5030999;28;1088;-75
2022/01/25 12:13:28;;;;;;;;;;;;;;;23.35;29.12;102244.19;5029507;28;1140;-76
2022/01/25 12:16:09;;;;;;;;;;;;;;;23.56;29.36;102239.00;5030533;28;1389;-77
2022/01/25 12:18:57;;;;;;;;;;;;;;;23.87;28.31;102235.47;5030792;28;1230;-76
2022/01/25 12:21:42;;;;;;;;;;;;;;;22.36;30.71;102243.94;5029671;28;1010;-76
2022/01/25 12:24:16;;;;;;;;;;;;;;;23.72;29.24;102237.25;5030361;28;1430;-75
2022/01/25 12:26:55;;;;;;;;;;;;;;;23.87;28.65;102238.25;5030533;28;1922;-76
2022/01/25 12:29:31;;;;;;;;;;;;;;;22.89;30.20;102236.34;5030708;28;610;-74
2022/01/25 12:32:12;;;;;;;;;;;;;;;23.04;30.19;102231.00;5030395;28;1163;-74
2022/01/25 12:34:56;;;;;;;;;;;;;;;24.41;28.31;102233.94;5026566;28;1694;-74
2022/01/25 12:37:41;;;;;;;;;;;;;;;23.97;28.80;102231.69;5015186;28;1352;-75
2022/01/25 12:40:26;;;;;;;;;;;;;;;23.97;28.72;102231.69;5038234;28;1497;-76
2022/01/25 12:42:52;;;;;;;;;;;;;;;24.61;28.43;102226.03;5028184;28;1513;-74
2022/01/25 12:45:20;;;;;;;;;;;;;;;24.54;28.27;102230.59;5031028;28;1987;-76
2022/01/25 12:47:51;;;;;;;;;;;;;;;23.64;29.33;102217.88;5033824;28;1076;-74
2022/01/25 12:50:18;;;;;;;;;;;;;;;23.48;29.37;102219.59;5034268;28;1054;-75
2022/01/25 12:52:45;;;;;;;;;;;;;;;23.87;28.92;102218.84;5033912;28;1517;-73
2022/01/25 12:55:12;;;;;;;;;;;;;;;23.78;28.89;102216.28;5033445;28;1372;-73
2022/01/25 12:57:40;;;;;;;;;;;;;;;23.61;29.18;102223.75;5032625;28;1159;-73
2022/01/25 13:00:06;;;;;;;;;;;;;;;24.40;28.26;102212.81;5033775;28;1066;-74
2022/01/25 13:02:33;;;;;;;;;;;;;;;24.89;27.89;102211.69;5033068;28;1537;-71
2022/01/25 13:04:59;;;;;;;;;;;;;;;23.76;29.07;102210.91;5033436;28;1914;-74
2022/01/25 13:07:27;;;;;;;;;;;;;;;24.97;27.73;102200.50;5033037;28;978;-74
2022/01/25 13:09:55;;;;;;;;;;;;;;;25.02;27.88;102199.97;5032378;28;1283;-75
2022/01/25 13:12:28;;;;;;;;;;;;;;;23.59;29.06;102200.91;5012943;28;1461;-74
2022/01/25 13:15:05;;;;;;;;;;;;;;;24.31;28.51;102191.69;5023977;28;1637;-77
2022/01/25 13:17:32;;;;;;;;;;;;;;;24.37;28.23;102191.84;5032343;28;1311;-76
2022/01/25 13:20:01;;;;;;;;;;;;;;;24.70;27.99;102188.03;5032430;28;1080;-73
2022/01/25 13:22:34;;;;;;;;;;;;;;;24.53;28.11;102190.88;5032962;28;887;-76
2022/01/25 13:25:13;;;;;;;;;;;;;;;23.78;28.93;102181.09;5032193;28;1975;-75
2022/01/25 13:27:48;;;;;;;;;;;;;;;24.30;28.54;102181.63;5027707;28;1259;-74
2022/01/25 13:32:59;;;;;;;;;;;;;;;24.53;28.26;102174.25;5032709;28;1204;-74
2022/01/25 13:35:27;;;;;;;;;;;;;;;24.00;29.07;102178.66;5031784;28;1356;-73
2022/01/25 13:38:06;;;;;;;;;;;;;;;23.55;29.69;102162.44;5016287;28;1584;-74
2022/01/25 13:40:43;;;;;;;;;;;;;;;23.94;28.75;102158.03;5014571;28;1030;-75
2022/01/25 13:43:33;;;;;;;;;;;;;;;24.49;28.56;102153.44;5032076;28;1465;-75
2022/01/25 13:46:00;;;;;;;;;;;;;;;24.28;28.88;102155.97;5020447;28;1985;-74
2022/01/25 13:48:27;;;;;;;;;;;;;;;24.37;28.78;102163.22;5028074;28;1361;-75
2022/01/25 13:50:55;;;;;;;;;;;;;;;24.90;28.00;102160.66;5025420;28;1312;-76
2022/01/25 13:53:23;;;;;;;;;;;;;;;24.07;28.57;102158.31;5010569;28;1394;-76
2022/01/25 13:55:50;;;;;;;;;;;;;;;24.56;28.10;102154.44;5016252;28;1473;-73
2022/01/25 13:58:23;;;;;;;;;;;;;;;24.81;28.45;102159.84;5032672;28;1332;-76
2022/01/25 14:00:51;;;;;;;;;;;;;;;24.37;28.47;102154.88;5035213;28;1159;-73
2022/01/25 14:03:17;;;;;;;;;;;;;;;23.64;29.01;102154.13;5037733;28;991;-74
2022/01/25 14:05:43;;;;;;;;;;;;;;;24.37;28.86;102157.66;5030386;28;1914;-73
2022/01/25 14:08:10;;;;;;;;;;;;;;;23.53;29.46;102152.56;5031423;28;1619;-75